createdAt,value
2023-04-02T00:00:30.139Z,94354.00
2023-04-02T00:01:30.150Z,94354.00
2023-04-02T00:02:30.302Z,94354.00
2023-04-02T00:03:30.291Z,94355.00
2023-04-02T00:04:30.296Z,94357.00
2023-04-02T00:05:30.334Z,94357.00
2023-04-02T00:06:30.385Z,94359.00
2023-04-02T00:07:30.410Z,94357.00
2023-04-02T00:08:30.381Z,94359.00
2023-04-02T00:09:30.359Z,94357.00
2023-04-02T00:10:30.402Z,94359.00
2023-04-02T00:11:30.423Z,94359.00
2023-04-02T00:12:30.478Z,94359.00
2023-04-02T00:13:30.473Z,94359.00
2023-04-02T00:14:30.492Z,94359.00
2023-04-02T00:15:30.505Z,94359.00
2023-04-02T00:16:30.629Z,94361.00
2023-04-02T00:17:30.575Z,94363.00
2023-04-02T00:18:30.600Z,94363.00
2023-04-02T00:19:30.619Z,94363.00
2023-04-02T00:20:30.619Z,94363.00
2023-04-02T00:21:30.650Z,94363.00
2023-04-02T00:22:30.692Z,94361.00
2023-04-02T00:23:30.697Z,94361.00
2023-04-02T00:24:30.695Z,94363.00
2023-04-02T00:25:30.757Z,94361.00
2023-04-02T00:26:30.747Z,94363.00
2023-04-02T00:27:30.773Z,94361.00
2023-04-02T00:28:30.824Z,94365.00
2023-04-02T00:30:01.919Z,94367.00
2023-04-02T00:31:01.859Z,94367.00
2023-04-02T00:32:01.895Z,94363.00
2023-04-02T00:33:01.850Z,94367.00
2023-04-02T00:34:01.830Z,94365.00
2023-04-02T00:35:01.835Z,94367.00
2023-04-02T00:36:01.857Z,94367.00
2023-04-02T00:37:01.925Z,94365.00
2023-04-02T00:38:01.821Z,94369.00
2023-04-02T00:39:01.806Z,94377.00
2023-04-02T00:40:01.781Z,94367.00
2023-04-02T00:41:01.808Z,94367.00
2023-04-02T00:42:01.803Z,94369.00
2023-04-02T00:43:01.787Z,94365.00
2023-04-02T00:44:01.778Z,94365.00
2023-04-02T00:45:01.778Z,94365.00
2023-04-02T00:46:01.847Z,94365.00
2023-04-02T00:47:01.749Z,94367.00
2023-04-02T00:48:01.769Z,94367.00
2023-04-02T00:49:01.729Z,94365.00
2023-04-02T00:50:01.740Z,94361.00
2023-04-02T00:51:01.720Z,94361.00
2023-04-02T00:52:01.725Z,94361.00
2023-04-02T00:53:01.684Z,94359.00
2023-04-02T00:54:01.725Z,94359.00
2023-04-02T00:55:01.706Z,94359.00
2023-04-02T00:56:01.673Z,94357.00
2023-04-02T00:57:01.725Z,94361.00
2023-04-02T00:58:01.653Z,94359.00
2023-04-02T00:59:01.651Z,94361.00
2023-04-02T01:00:01.675Z,94365.00
2023-04-02T01:01:01.686Z,94361.00
2023-04-02T01:02:01.691Z,94363.00
2023-04-02T01:03:01.721Z,94363.00
2023-04-02T01:04:01.619Z,94365.00
2023-04-02T01:05:01.608Z,94363.00
2023-04-02T01:06:01.661Z,94365.00
2023-04-02T01:07:01.589Z,94367.00
2023-04-02T01:08:01.643Z,94367.00
2023-04-02T01:09:01.635Z,94369.00
2023-04-02T01:10:01.610Z,94367.00
2023-04-02T01:11:01.589Z,94367.00
2023-04-02T01:12:01.567Z,94369.00
2023-04-02T01:13:01.582Z,94369.00
2023-04-02T01:14:01.558Z,94377.00
2023-04-02T01:15:01.556Z,94379.00
2023-04-02T01:16:01.582Z,94379.00
2023-04-02T01:17:01.554Z,94377.00
2023-04-02T01:18:01.669Z,94381.00
2023-04-02T01:19:01.532Z,94379.00
2023-04-02T01:20:01.513Z,94381.00
2023-04-02T01:21:01.505Z,94381.00
2023-04-02T01:22:01.497Z,94381.00
2023-04-02T01:23:01.490Z,94383.00
2023-04-02T01:24:01.474Z,94379.00
2023-04-02T01:25:01.462Z,94383.00
2023-04-02T01:26:01.499Z,94383.00
2023-04-02T01:27:01.486Z,94383.00
2023-04-02T01:28:01.459Z,94385.00
2023-04-02T01:29:01.441Z,94383.00
2023-04-02T01:30:01.491Z,94383.00
2023-04-02T01:31:01.483Z,94383.00
2023-04-02T01:32:01.441Z,94383.00
2023-04-02T01:33:01.514Z,94379.00
2023-04-02T01:34:01.440Z,94381.00
2023-04-02T01:35:01.411Z,94379.00
2023-04-02T01:36:01.498Z,94379.00
2023-04-02T01:37:01.450Z,94379.00
2023-04-02T01:38:01.421Z,94383.00
2023-04-02T01:39:01.393Z,94377.00
2023-04-02T01:40:01.414Z,94381.00
2023-04-02T01:41:01.369Z,94385.00
2023-04-02T01:42:01.367Z,94387.00
2023-04-02T01:43:01.376Z,94387.00
2023-04-02T01:44:01.362Z,94387.00
2023-04-02T01:45:01.374Z,94391.00
2023-04-02T01:46:01.332Z,94391.00
2023-04-02T01:47:01.335Z,94389.00
2023-04-02T01:48:01.344Z,94391.00
2023-04-02T01:49:01.330Z,94391.00
2023-04-02T01:50:01.335Z,94389.00
2023-04-02T01:51:01.317Z,94389.00
2023-04-02T01:52:01.323Z,94391.00
2023-04-02T01:53:01.320Z,94393.00
2023-04-02T01:54:01.290Z,94395.00
2023-04-02T01:55:01.278Z,94395.00
2023-04-02T01:56:01.268Z,94397.00
2023-04-02T01:57:01.363Z,94397.00
2023-04-02T01:58:01.284Z,94397.00
2023-04-02T01:59:01.263Z,94399.00
2023-04-02T02:00:01.252Z,94400.00
2023-04-02T02:01:01.254Z,94399.00
2023-04-02T02:02:01.332Z,94400.00
2023-04-02T02:03:01.261Z,94400.00
2023-04-02T02:04:01.242Z,94402.00
2023-04-02T02:05:01.185Z,94402.00
2023-04-02T02:06:01.235Z,94404.00
2023-04-02T02:07:01.203Z,94404.00
2023-04-02T02:08:01.235Z,94406.00
2023-04-02T02:09:01.216Z,94404.00
2023-04-02T02:10:01.253Z,94408.00
2023-04-02T02:11:01.244Z,94408.00
2023-04-02T02:12:01.268Z,94410.00
2023-04-02T02:13:01.262Z,94412.00
2023-04-02T02:14:01.289Z,94414.00
2023-04-02T02:15:01.309Z,94414.00
2023-04-02T02:16:01.350Z,94410.00
2023-04-02T02:17:01.319Z,94410.00
2023-04-02T02:18:01.392Z,94414.00
2023-04-02T02:19:01.358Z,94412.00
2023-04-02T02:20:01.378Z,94410.00
2023-04-02T02:21:01.416Z,94416.00
2023-04-02T02:22:01.375Z,94414.00
2023-04-02T02:23:01.418Z,94414.00
2023-04-02T02:24:01.424Z,94414.00
2023-04-02T02:25:01.458Z,94414.00
2023-04-02T02:26:01.469Z,94416.00
2023-04-02T02:27:01.519Z,94416.00
2023-04-02T02:28:01.522Z,94420.00
2023-04-02T02:29:01.526Z,94420.00
2023-04-02T02:30:01.533Z,94422.00
2023-04-02T02:31:01.600Z,94422.00
2023-04-02T02:32:50.727Z,94424.00
2023-04-02T02:33:50.637Z,94424.00
2023-04-02T02:34:50.595Z,94428.00
2023-04-02T02:35:50.651Z,94428.00
2023-04-02T02:36:50.639Z,94430.00
2023-04-02T02:37:50.621Z,94432.00
2023-04-02T02:38:50.601Z,94430.00
2023-04-02T02:39:50.608Z,94436.00
2023-04-02T02:40:50.573Z,94440.00
2023-04-02T02:41:50.609Z,94438.00
2023-04-02T02:42:50.573Z,94442.00
2023-04-02T02:43:50.566Z,94446.00
2023-04-02T02:44:50.539Z,94447.00
2023-04-02T02:45:50.570Z,94446.00
2023-04-02T02:46:50.558Z,94447.00
2023-04-02T02:47:50.534Z,94446.00
2023-04-02T02:48:50.522Z,94446.00
2023-04-02T02:49:50.516Z,94447.00
2023-04-02T02:50:50.538Z,94447.00
2023-04-02T02:51:50.522Z,94449.00
2023-04-02T02:52:50.498Z,94447.00
2023-04-02T02:53:50.478Z,94451.00
2023-04-02T02:54:50.478Z,94451.00
2023-04-02T02:55:50.462Z,94455.00
2023-04-02T02:56:50.470Z,94453.00
2023-04-02T02:57:50.486Z,94455.00
2023-04-02T02:58:50.430Z,94455.00
2023-04-02T02:59:50.444Z,94457.00
2023-04-02T03:00:50.441Z,94453.00
2023-04-02T03:01:50.458Z,94457.00
2023-04-02T03:02:50.564Z,94455.00
2023-04-02T03:03:50.578Z,94455.00
2023-04-02T03:04:50.398Z,94457.00
2023-04-02T03:05:50.418Z,94457.00
2023-04-02T03:06:50.422Z,94455.00
2023-04-02T03:07:50.404Z,94459.00
2023-04-02T03:08:50.366Z,94459.00
2023-04-02T03:09:50.356Z,94463.00
2023-04-02T03:10:50.377Z,94461.00
2023-04-02T03:11:50.366Z,94463.00
2023-04-02T03:12:50.325Z,94463.00
2023-04-02T03:13:50.337Z,94463.00
2023-04-02T03:14:50.337Z,94467.00
2023-04-02T03:15:50.298Z,94467.00
2023-04-02T03:16:50.337Z,94473.00
2023-04-02T03:17:50.346Z,94473.00
2023-04-02T03:18:50.289Z,94475.00
2023-04-02T03:19:50.313Z,94477.00
2023-04-02T03:20:50.285Z,94475.00
2023-04-02T03:21:50.312Z,94477.00
2023-04-02T03:22:50.299Z,94473.00
2023-04-02T03:23:50.292Z,94479.00
2023-04-02T03:24:50.282Z,94481.00
2023-04-02T03:25:50.280Z,94479.00
2023-04-02T03:26:50.286Z,94483.00
2023-04-02T03:27:50.257Z,94483.00
2023-04-02T03:28:50.268Z,94485.00
2023-04-02T03:29:50.212Z,94485.00
2023-04-02T03:30:50.241Z,94487.00
2023-04-02T03:31:50.239Z,94487.00
2023-04-02T03:32:50.237Z,94485.00
2023-04-02T03:33:50.216Z,94487.00
2023-04-02T03:34:50.220Z,94485.00
2023-04-02T03:35:50.245Z,94483.00
2023-04-02T03:36:50.203Z,94485.00
2023-04-02T03:37:50.174Z,94487.00
2023-04-02T03:38:50.193Z,94489.00
2023-04-02T03:39:50.195Z,94491.00
2023-04-02T03:40:50.162Z,94491.00
2023-04-02T03:41:50.157Z,94493.00
2023-04-02T03:42:50.177Z,94495.00
2023-04-02T03:43:50.184Z,94495.00
2023-04-02T03:44:50.166Z,94495.00
2023-04-02T03:45:50.144Z,94495.00
2023-04-02T03:46:50.203Z,94495.00
2023-04-02T03:47:50.169Z,94497.00
2023-04-02T03:48:50.104Z,94491.00
2023-04-02T03:49:50.155Z,94491.00
2023-04-02T03:50:50.085Z,94495.00
2023-04-02T03:51:50.098Z,94497.00
2023-04-02T03:52:50.079Z,94497.00
2023-04-02T03:53:50.083Z,94497.00
2023-04-02T03:54:53.607Z,94497.00
2023-04-02T03:55:50.075Z,94499.00
2023-04-02T03:56:50.101Z,94493.00
2023-04-02T03:57:50.065Z,94501.00
2023-04-02T03:58:50.050Z,94495.00
2023-04-02T03:59:50.065Z,94495.00
2023-04-02T04:00:50.021Z,94501.00
2023-04-02T04:01:50.041Z,94499.00
2023-04-02T04:02:50.070Z,94501.00
2023-04-02T04:03:50.062Z,94501.00
2023-04-02T04:04:50.028Z,94504.00
2023-04-02T04:05:50.002Z,94499.00
2023-04-02T04:06:49.978Z,94501.00
2023-04-02T04:07:49.958Z,94502.00
2023-04-02T04:08:49.969Z,94501.00
2023-04-02T04:09:49.983Z,94502.00
2023-04-02T04:10:49.993Z,94508.00
2023-04-02T04:11:49.952Z,94504.00
2023-04-02T04:12:49.947Z,94510.00
2023-04-02T04:13:49.953Z,94510.00
2023-04-02T04:14:49.949Z,94506.00
2023-04-02T04:15:49.932Z,94506.00
2023-04-02T04:16:49.970Z,94514.00
2023-04-02T04:17:49.963Z,94512.00
2023-04-02T04:18:49.893Z,94516.00
2023-04-02T04:19:49.904Z,94516.00
2023-04-02T04:20:49.979Z,94518.00
2023-04-02T04:21:49.907Z,94520.00
2023-04-02T04:22:49.896Z,94524.00
2023-04-02T04:23:49.895Z,94524.00
2023-04-02T04:24:49.889Z,94524.00
2023-04-02T04:25:49.842Z,94526.00
2023-04-02T04:26:49.863Z,94528.00
2023-04-02T04:27:49.871Z,94530.00
2023-04-02T04:28:49.874Z,94530.00
2023-04-02T04:29:49.860Z,94534.00
2023-04-02T04:30:49.869Z,94528.00
2023-04-02T04:31:49.949Z,94538.00
2023-04-02T04:32:49.846Z,94536.00
2023-04-02T04:33:49.828Z,94542.00
2023-04-02T04:34:49.819Z,94544.00
2023-04-02T04:35:49.899Z,94548.00
2023-04-02T04:36:49.792Z,94548.00
2023-04-02T04:37:49.752Z,94549.00
2023-04-02T04:38:49.779Z,94544.00
2023-04-02T04:39:49.758Z,94546.00
2023-04-02T04:40:49.762Z,94546.00
2023-04-02T04:41:49.765Z,94548.00
2023-04-02T04:42:49.767Z,94548.00
2023-04-02T04:43:49.749Z,94555.00
2023-04-02T04:44:49.758Z,94551.00
2023-04-02T04:45:49.744Z,94553.00
2023-04-02T04:46:49.727Z,94561.00
2023-04-02T04:47:49.802Z,94557.00
2023-04-02T04:48:49.740Z,94559.00
2023-04-02T04:49:49.704Z,94561.00
2023-04-02T04:50:49.694Z,94555.00
2023-04-02T04:51:49.752Z,94557.00
2023-04-02T04:52:49.766Z,94559.00
2023-04-02T04:53:49.772Z,94559.00
2023-04-02T04:54:49.803Z,94561.00
2023-04-02T04:55:49.784Z,94561.00
2023-04-02T04:56:49.889Z,94561.00
2023-04-02T04:57:49.829Z,94563.00
2023-04-02T04:58:49.879Z,94565.00
2023-04-02T04:59:49.865Z,94565.00
2023-04-02T05:00:50.234Z,94565.00
2023-04-02T05:01:49.940Z,94571.00
2023-04-02T05:02:49.987Z,94573.00
2023-04-02T05:03:49.943Z,94569.00
2023-04-02T05:04:49.960Z,94575.00
2023-04-02T05:05:49.950Z,94571.00
2023-04-02T05:06:49.921Z,94571.00
2023-04-02T05:07:49.973Z,94581.00
2023-04-02T05:08:49.974Z,94579.00
2023-04-02T05:09:49.964Z,94573.00
2023-04-02T05:10:49.990Z,94575.00
2023-04-02T05:11:49.983Z,94577.00
2023-04-02T05:12:49.998Z,94583.00
2023-04-02T05:13:50.035Z,94577.00
2023-04-02T05:14:50.013Z,94583.00
2023-04-02T05:15:50.089Z,94583.00
2023-04-02T05:16:50.088Z,94583.00
2023-04-02T05:17:50.137Z,94581.00
2023-04-02T05:18:50.091Z,94581.00
2023-04-02T05:19:50.105Z,94577.00
2023-04-02T05:20:50.118Z,94577.00
2023-04-02T05:21:50.117Z,94581.00
2023-04-02T05:22:50.140Z,94581.00
2023-04-02T05:23:50.187Z,94581.00
2023-04-02T05:24:50.213Z,94581.00
2023-04-02T05:25:50.237Z,94581.00
2023-04-02T05:26:50.251Z,94585.00
2023-04-02T05:27:50.259Z,94587.00
2023-04-02T05:28:50.294Z,94583.00
2023-04-02T05:29:50.273Z,94591.00
2023-04-02T05:30:50.311Z,94585.00
2023-04-02T05:31:50.479Z,94585.00
2023-04-02T05:32:50.363Z,94585.00
2023-04-02T05:33:50.358Z,94589.00
2023-04-02T05:34:50.355Z,94591.00
2023-04-02T05:35:50.396Z,94591.00
2023-04-02T05:36:50.398Z,94593.00
2023-04-02T05:37:50.403Z,94595.00
2023-04-02T05:38:50.431Z,94596.00
2023-04-02T05:39:50.433Z,94600.00
2023-04-02T05:40:50.479Z,94602.00
2023-04-02T05:41:50.475Z,94602.00
2023-04-02T05:42:50.467Z,94604.00
2023-04-02T05:43:50.532Z,94606.00
2023-04-02T05:44:50.537Z,94608.00
2023-04-02T05:45:50.556Z,94608.00
2023-04-02T05:46:50.629Z,94610.00
2023-04-02T05:47:50.672Z,94610.00
2023-04-02T05:48:50.579Z,94606.00
2023-04-02T05:49:50.612Z,94608.00
2023-04-02T05:50:50.616Z,94612.00
2023-04-02T05:51:50.630Z,94612.00
2023-04-02T05:52:50.680Z,94612.00
2023-04-02T05:53:50.654Z,94614.00
2023-04-02T05:54:50.680Z,94616.00
2023-04-02T05:55:50.719Z,94618.00
2023-04-02T05:56:50.739Z,94620.00
2023-04-02T05:58:04.263Z,94622.00
2023-04-02T05:58:51.807Z,94620.00
2023-04-02T05:59:50.716Z,94622.00
2023-04-02T06:00:50.737Z,94622.00
2023-04-02T06:01:50.753Z,94626.00
2023-04-02T06:02:50.761Z,94624.00
2023-04-02T06:03:50.712Z,94624.00
2023-04-02T06:04:50.680Z,94624.00
2023-04-02T06:05:50.675Z,94624.00
2023-04-02T06:06:50.694Z,94622.00
2023-04-02T06:07:50.634Z,94626.00
2023-04-02T06:08:50.670Z,94624.00
2023-04-02T06:09:50.669Z,94624.00
2023-04-02T06:10:50.651Z,94626.00
2023-04-02T06:11:50.641Z,94622.00
2023-04-02T06:12:50.614Z,94622.00
2023-04-02T06:13:50.614Z,94622.00
2023-04-02T06:14:50.600Z,94624.00
2023-04-02T06:15:50.615Z,94624.00
2023-04-02T06:16:50.621Z,94634.00
2023-04-02T06:17:50.635Z,94634.00
2023-04-02T06:18:50.599Z,94636.00
2023-04-02T06:19:50.590Z,94636.00
2023-04-02T06:20:50.588Z,94636.00
2023-04-02T06:21:50.545Z,94638.00
2023-04-02T06:22:50.543Z,94638.00
2023-04-02T06:23:50.558Z,94636.00
2023-04-02T06:24:50.536Z,94638.00
2023-04-02T06:25:50.595Z,94634.00
2023-04-02T06:26:50.611Z,94638.00
2023-04-02T06:27:50.627Z,94640.00
2023-04-02T06:28:50.650Z,94640.00
2023-04-02T06:29:50.652Z,94642.00
2023-04-02T06:30:50.727Z,94644.00
2023-04-02T06:31:50.743Z,94646.00
2023-04-02T06:32:50.819Z,94649.00
2023-04-02T06:33:50.769Z,94651.00
2023-04-02T06:34:50.765Z,94649.00
2023-04-02T06:35:50.844Z,94651.00
2023-04-02T06:36:50.838Z,94649.00
2023-04-02T06:37:50.862Z,94649.00
2023-04-02T06:38:50.871Z,94651.00
2023-04-02T06:39:50.898Z,94649.00
2023-04-02T06:40:50.979Z,94651.00
2023-04-02T06:41:50.965Z,94651.00
2023-04-02T06:42:50.968Z,94651.00
2023-04-02T06:43:50.968Z,94653.00
2023-04-02T06:44:50.989Z,94655.00
2023-04-02T06:45:50.992Z,94653.00
2023-04-02T06:46:52.441Z,94655.00
2023-04-02T06:47:51.081Z,94657.00
2023-04-02T06:48:51.082Z,94655.00
2023-04-02T06:49:51.095Z,94655.00
2023-04-02T06:50:51.110Z,94657.00
2023-04-02T06:51:51.215Z,94657.00
2023-04-02T06:52:51.168Z,94657.00
2023-04-02T06:53:51.159Z,94659.00
2023-04-02T06:54:51.230Z,94659.00
2023-04-02T06:55:51.195Z,94655.00
2023-04-02T06:56:51.236Z,94657.00
2023-04-02T06:57:51.256Z,94659.00
2023-04-02T06:58:51.288Z,94659.00
2023-04-02T06:59:51.289Z,94661.00
2023-04-02T07:00:51.310Z,94659.00
2023-04-02T07:01:51.409Z,94659.00
2023-04-02T07:02:51.370Z,94661.00
2023-04-02T07:03:51.384Z,94659.00
2023-04-02T07:04:51.465Z,94659.00
2023-04-02T07:05:51.408Z,94659.00
2023-04-02T07:06:51.474Z,94659.00
2023-04-02T07:07:51.460Z,94659.00
2023-04-02T07:08:51.487Z,94659.00
2023-04-02T07:09:51.508Z,94659.00
2023-04-02T07:10:51.520Z,94661.00
2023-04-02T07:11:51.571Z,94659.00
2023-04-02T07:12:51.577Z,94655.00
2023-04-02T07:13:51.582Z,94655.00
2023-04-02T07:14:51.582Z,94653.00
2023-04-02T07:15:51.620Z,94655.00
2023-04-02T07:16:51.646Z,94653.00
2023-04-02T07:17:51.759Z,94655.00
2023-04-02T07:18:51.673Z,94657.00
2023-04-02T07:19:51.689Z,94657.00
2023-04-02T07:20:52.155Z,94657.00
2023-04-02T07:21:51.727Z,94657.00
2023-04-02T07:22:51.786Z,94655.00
2023-04-02T07:23:51.781Z,94655.00
2023-04-02T07:24:51.795Z,94655.00
2023-04-02T07:25:51.852Z,94653.00
2023-04-02T07:26:51.841Z,94653.00
2023-04-02T07:27:51.942Z,94655.00
2023-04-02T07:28:51.879Z,94655.00
2023-04-02T07:29:51.905Z,94657.00
2023-04-02T07:30:51.986Z,94655.00
2023-04-02T07:31:52.062Z,94655.00
2023-04-02T07:32:52.026Z,94655.00
2023-04-02T07:33:51.971Z,94655.00
2023-04-02T07:34:52.021Z,94655.00
2023-04-02T07:35:52.073Z,94655.00
2023-04-02T07:36:52.088Z,94653.00
2023-04-02T07:37:52.082Z,94655.00
2023-04-02T07:38:52.112Z,94655.00
2023-04-02T07:39:52.121Z,94655.00
2023-04-02T07:40:52.162Z,94655.00
2023-04-02T07:41:52.179Z,94655.00
2023-04-02T07:42:52.184Z,94661.00
2023-04-02T07:43:52.237Z,94661.00
2023-04-02T07:44:52.251Z,94661.00
2023-04-02T07:45:52.265Z,94665.00
2023-04-02T07:46:52.390Z,94667.00
2023-04-02T07:47:52.314Z,94669.00
2023-04-02T07:48:52.305Z,94671.00
2023-04-02T07:49:52.340Z,94671.00
2023-04-02T07:50:52.376Z,94671.00
2023-04-02T07:51:52.373Z,94671.00
2023-04-02T07:52:52.414Z,94673.00
2023-04-02T07:53:52.446Z,94671.00
2023-04-02T07:54:52.422Z,94669.00
2023-04-02T07:55:52.479Z,94671.00
2023-04-02T07:56:52.532Z,94671.00
2023-04-02T07:57:52.549Z,94669.00
2023-04-02T07:58:52.549Z,94673.00
2023-04-02T07:59:52.575Z,94669.00
2023-04-02T08:00:52.593Z,94671.00
2023-04-02T08:01:52.656Z,94673.00
2023-04-02T08:02:52.812Z,94673.00
2023-04-02T08:03:54.267Z,94673.00
2023-04-02T08:04:52.719Z,94671.00
2023-04-02T08:05:52.734Z,94671.00
2023-04-02T08:06:52.732Z,94671.00
2023-04-02T08:07:52.771Z,94669.00
2023-04-02T08:08:52.773Z,94669.00
2023-04-02T08:09:52.798Z,94671.00
2023-04-02T08:10:52.816Z,94673.00
2023-04-02T08:11:52.846Z,94671.00
2023-04-02T08:12:52.838Z,94671.00
2023-04-02T08:13:52.863Z,94669.00
2023-04-02T08:14:52.862Z,94675.00
2023-04-02T08:15:52.917Z,94671.00
2023-04-02T08:16:53.041Z,94673.00
2023-04-02T08:17:52.971Z,94675.00
2023-04-02T08:18:52.961Z,94673.00
2023-04-02T08:19:55.062Z,94671.00
2023-04-02T08:20:53.027Z,94673.00
2023-04-02T08:21:53.037Z,94675.00
2023-04-02T08:22:53.067Z,94675.00
2023-04-02T08:23:53.178Z,94673.00
2023-04-02T08:24:53.092Z,94677.00
2023-04-02T08:25:53.103Z,94675.00
2023-04-02T08:26:53.165Z,94677.00
2023-04-02T08:27:53.170Z,94677.00
2023-04-02T08:28:53.172Z,94675.00
2023-04-02T08:29:53.174Z,94681.00
2023-04-02T08:30:53.408Z,94683.00
2023-04-02T08:31:53.253Z,94679.00
2023-04-02T08:32:53.330Z,94677.00
2023-04-02T08:33:53.294Z,94677.00
2023-04-02T08:34:53.325Z,94675.00
2023-04-02T08:35:53.384Z,94679.00
2023-04-02T08:36:53.325Z,94675.00
2023-04-02T08:37:53.376Z,94677.00
2023-04-02T08:38:53.397Z,94677.00
2023-04-02T08:39:53.406Z,94675.00
2023-04-02T08:40:53.400Z,94673.00
2023-04-02T08:41:53.452Z,94673.00
2023-04-02T08:42:53.430Z,94673.00
2023-04-02T08:43:53.506Z,94673.00
2023-04-02T08:44:53.509Z,94673.00
2023-04-02T08:45:53.534Z,94671.00
2023-04-02T08:46:53.546Z,94675.00
2023-04-02T08:47:53.750Z,94669.00
2023-04-02T08:48:53.576Z,94665.00
2023-04-02T08:49:53.601Z,94673.00
2023-04-02T08:50:53.621Z,94669.00
2023-04-02T08:51:53.633Z,94669.00
2023-04-02T08:52:53.645Z,94671.00
2023-04-02T08:53:53.694Z,94671.00
2023-04-02T08:54:53.703Z,94665.00
2023-04-02T08:55:53.755Z,94669.00
2023-04-02T08:56:53.802Z,94665.00
2023-04-02T08:57:53.757Z,94669.00
2023-04-02T08:58:53.784Z,94661.00
2023-04-02T08:59:53.801Z,94661.00
2023-04-02T09:00:53.842Z,94665.00
2023-04-02T09:01:53.914Z,94657.00
2023-04-02T09:02:53.905Z,94665.00
2023-04-02T09:03:53.906Z,94665.00
2023-04-02T09:04:53.989Z,94663.00
2023-04-02T09:05:53.947Z,94661.00
2023-04-02T09:06:53.972Z,94661.00
2023-04-02T09:07:53.994Z,94659.00
2023-04-02T09:08:53.993Z,94657.00
2023-04-02T09:09:54.041Z,94659.00
2023-04-02T09:10:54.051Z,94657.00
2023-04-02T09:11:54.058Z,94659.00
2023-04-02T09:12:54.091Z,94659.00
2023-04-02T09:13:54.106Z,94659.00
2023-04-02T09:14:54.129Z,94661.00
2023-04-02T09:15:54.206Z,94657.00
2023-04-02T09:16:54.189Z,94659.00
2023-04-02T09:17:55.013Z,94657.00
2023-04-02T09:18:54.206Z,94655.00
2023-04-02T09:19:55.002Z,94657.00
2023-04-02T09:20:54.238Z,94653.00
2023-04-02T09:21:54.244Z,94655.00
2023-04-02T09:22:54.311Z,94653.00
2023-04-02T09:23:54.315Z,94655.00
2023-04-02T09:24:54.304Z,94655.00
2023-04-02T09:26:03.461Z,94653.00
2023-04-02T09:26:55.318Z,94653.00
2023-04-02T09:27:54.307Z,94655.00
2023-04-02T09:28:54.289Z,94655.00
2023-04-02T09:29:54.285Z,94655.00
2023-04-02T09:30:54.284Z,94657.00
2023-04-02T09:31:54.330Z,94659.00
2023-04-02T09:32:54.352Z,94659.00
2023-04-02T09:33:54.296Z,94659.00
2023-04-02T09:34:54.240Z,94659.00
2023-04-02T09:35:54.326Z,94659.00
2023-04-02T09:36:54.249Z,94659.00
2023-04-02T09:37:54.245Z,94659.00
2023-04-02T09:38:54.236Z,94661.00
2023-04-02T09:39:54.241Z,94657.00
2023-04-02T09:40:54.218Z,94657.00
2023-04-02T09:42:04.945Z,94657.00
2023-04-02T09:42:55.210Z,94655.00
2023-04-02T09:43:54.214Z,94655.00
2023-04-02T09:44:54.188Z,94655.00
2023-04-02T09:45:54.178Z,94655.00
2023-04-02T09:46:54.233Z,94655.00
2023-04-02T09:47:54.195Z,94653.00
2023-04-02T09:48:54.194Z,94655.00
2023-04-02T09:49:54.152Z,94655.00
2023-04-02T09:50:54.161Z,94655.00
2023-04-02T09:51:54.170Z,94653.00
2023-04-02T09:52:54.166Z,94655.00
2023-04-02T09:53:54.148Z,94657.00
2023-04-02T09:54:54.133Z,94655.00
2023-04-02T09:55:54.148Z,94659.00
2023-04-02T09:56:54.159Z,94661.00
2023-04-02T09:57:54.116Z,94659.00
2023-04-02T09:58:54.095Z,94661.00
2023-04-02T09:59:54.952Z,94663.00
2023-04-02T10:00:54.161Z,94663.00
2023-04-02T10:01:54.106Z,94663.00
2023-04-02T10:02:54.065Z,94665.00
2023-04-02T10:03:54.090Z,94665.00
2023-04-02T10:04:54.060Z,94665.00
2023-04-02T10:05:54.037Z,94663.00
2023-04-02T10:06:54.013Z,94667.00
2023-04-02T10:07:54.061Z,94667.00
2023-04-02T10:08:54.023Z,94665.00
2023-04-02T10:09:54.045Z,94667.00
2023-04-02T10:10:54.099Z,94667.00
2023-04-02T10:11:54.090Z,94665.00
2023-04-02T10:12:54.131Z,94663.00
2023-04-02T10:13:54.150Z,94661.00
2023-04-02T10:14:54.150Z,94659.00
2023-04-02T10:15:54.156Z,94659.00
2023-04-02T10:16:54.272Z,94661.00
2023-04-02T10:17:54.226Z,94659.00
2023-04-02T10:18:54.246Z,94659.00
2023-04-02T10:19:54.221Z,94659.00
2023-04-02T10:20:55.127Z,94657.00
2023-04-02T10:21:54.263Z,94657.00
2023-04-02T10:22:54.270Z,94655.00
2023-04-02T10:23:54.313Z,94659.00
2023-04-02T10:24:54.311Z,94661.00
2023-04-02T10:25:54.349Z,94657.00
2023-04-02T10:26:54.342Z,94659.00
2023-04-02T10:27:54.393Z,94659.00
2023-04-02T10:28:54.414Z,94659.00
2023-04-02T10:29:54.397Z,94659.00
2023-04-02T10:30:54.476Z,94659.00
2023-04-02T10:31:54.413Z,94655.00
2023-04-02T10:32:54.476Z,94655.00
2023-04-02T10:33:54.455Z,94659.00
2023-04-02T10:34:54.472Z,94659.00
2023-04-02T10:35:54.513Z,94661.00
2023-04-02T10:36:54.500Z,94659.00
2023-04-02T10:37:54.496Z,94659.00
2023-04-02T10:38:54.538Z,94661.00
2023-04-02T10:39:54.536Z,94659.00
2023-04-02T10:40:55.873Z,94659.00
2023-04-02T10:41:54.580Z,94659.00
2023-04-02T10:42:54.583Z,94661.00
2023-04-02T10:43:54.605Z,94659.00
2023-04-02T10:44:54.625Z,94663.00
2023-04-02T10:45:54.646Z,94659.00
2023-04-02T10:46:54.665Z,94663.00
2023-04-02T10:47:54.684Z,94663.00
2023-04-02T10:48:54.689Z,94661.00
2023-04-02T10:49:54.648Z,94663.00
2023-04-02T10:50:54.668Z,94665.00
2023-04-02T10:51:54.686Z,94663.00
2023-04-02T10:52:56.545Z,94663.00
2023-04-02T10:53:54.746Z,94667.00
2023-04-02T10:54:54.745Z,94661.00
2023-04-02T10:55:54.752Z,94665.00
2023-04-02T10:56:54.781Z,94667.00
2023-04-02T10:57:54.785Z,94669.00
2023-04-02T10:58:57.245Z,94669.00
2023-04-02T10:59:55.016Z,94669.00
2023-04-02T11:00:55.029Z,94671.00
2023-04-02T11:01:55.063Z,94671.00
2023-04-02T11:02:55.159Z,94671.00
2023-04-02T11:03:57.862Z,94671.00
2023-04-02T11:04:57.328Z,94673.00
2023-04-02T11:05:55.025Z,94677.00
2023-04-02T11:07:06.978Z,94673.00
2023-04-02T11:07:56.065Z,94673.00
2023-04-02T11:08:55.016Z,94673.00
2023-04-02T11:09:55.103Z,94673.00
2023-04-02T11:10:55.007Z,94673.00
2023-04-02T11:11:54.999Z,94675.00
2023-04-02T11:12:55.019Z,94673.00
2023-04-02T11:13:54.997Z,94673.00
2023-04-02T11:14:54.973Z,94675.00
2023-04-02T11:15:55.045Z,94673.00
2023-04-02T11:16:55.002Z,94675.00
2023-04-02T11:17:54.999Z,94679.00
2023-04-02T11:18:54.966Z,94681.00
2023-04-02T11:19:54.955Z,94679.00
2023-04-02T11:20:54.967Z,94683.00
2023-04-02T11:21:59.280Z,94681.00
2023-04-02T11:22:55.921Z,94683.00
2023-04-02T11:23:54.929Z,94681.00
2023-04-02T11:24:54.959Z,94685.00
2023-04-02T11:25:54.930Z,94683.00
2023-04-02T11:26:54.919Z,94687.00
2023-04-02T11:27:54.921Z,94689.00
2023-04-02T11:28:54.888Z,94689.00
2023-04-02T11:29:54.879Z,94687.00
2023-04-02T11:30:54.886Z,94689.00
2023-04-02T11:31:54.908Z,94689.00
2023-04-02T11:32:54.903Z,94693.00
2023-04-02T11:33:54.863Z,94689.00
2023-04-02T11:35:05.886Z,94691.00
2023-04-02T11:35:55.869Z,94691.00
2023-04-02T11:36:54.833Z,94696.00
2023-04-02T11:37:54.841Z,94695.00
2023-04-02T11:38:57.516Z,94696.00
2023-04-02T11:39:55.834Z,94700.00
2023-04-02T11:40:54.843Z,94698.00
2023-04-02T11:41:54.804Z,94698.00
2023-04-02T11:42:54.797Z,94696.00
2023-04-02T11:43:54.808Z,94700.00
2023-04-02T11:44:54.811Z,94702.00
2023-04-02T11:45:54.996Z,94704.00